Salt, Spain
Current Conditions -  °F | °C
As of 12:30 PM on Thursday 27 Nov 2014 (Local Time) from LEGE Reporting Station
Rain Showers Rain Showers  
Wind Chill: 59°   Ceiling: 7500
Heat Index: 59°   Visibility: 6mi
Dew Point: 55°   Wind: 8mph
Humidity: 88%   Direction: 210°SSW
Pressure: 29.71"   Gusts: NA
Location:  41.97°N, 2.79°E
Report Text: LEGE 271130Z 21007KT 180V240 9999 VCSH FEW040 BKN075TCU 15/13 Q1006
Loading
Personal Weather Stations






























Interactive Weather Map New forecast layout! Learn more

10-Day Weather Forecast

Advertisements
Track Severe Weather on mobile